Date,TemperatureHighF,TemperatureAvgF,TemperatureLowF,DewpointHighF,DewpointAvgF,DewpointLowF,HumidityHigh,HumidityAvg,HumidityLow,PressureMaxIn,PressureMinIn,WindSpeedMaxMPH,WindSpeedAvgMPH,GustSpeedMaxMPH,PrecipitationSumIn
2013-1-1,40.3,36.9,28.0,31.0,26.1,15.0,76,65,53,30.01,29.83,14,4,0,0.00
2013-1-2,34.6,28.3,23.9,18.0,14.6,12.0,66,57,46,30.17,29.99,12,3,0,0.00
2013-1-3,33.7,29.1,25.2,20.0,17.3,16.0,72,62,51,30.19,30.06,7,2,0,0.00
2013-1-4,38.0,33.8,28.8,24.0,22.2,20.0,71,63,55,30.08,29.95,11,4,0,0.00
2013-1-5,45.0,36.1,30.6,25.0,22.5,19.0,71,59,43,30.28,30.02,10,3,0,0.00
2013-1-6,47.8,39.2,32.2,33.0,29.2,24.0,92,69,49,30.21,29.96,6,2,0,0.00
2013-1-7,47.7,39.2,29.7,31.0,26.9,24.0,79,63,40,30.39,30.04,9,2,0,0.00
2013-1-8,50.3,37.4,26.2,34.0,29.3,23.0,90,74,53,30.41,30.32,8,1,0,0.00
2013-1-9,49.6,40.9,30.8,40.0,34.0,28.0,90,77,64,30.38,30.12,8,2,0,0.00
2013-1-10,50.1,43.5,38.4,34.0,27.5,25.0,65,54,39,30.53,30.23,10,3,0,0.00
2013-1-11,45.7,41.6,36.1,46.0,35.4,26.0,100,79,61,30.52,30.07,5,1,0,0.60
2013-1-12,48.5,45.7,42.8,46.0,44.1,42.0,96,94,89,30.15,30.05,3,1,0,0.01
2013-1-13,48.6,45.8,43.0,47.0,44.7,42.0,98,96,91,30.14,29.99,4,0,0,0.02
2013-1-14,56.7,50.1,39.9,54.0,44.2,30.0,98,82,48,30.28,29.88,7,2,0,0.08
2013-1-15,39.8,38.2,36.0,37.0,30.8,28.0,91,75,64,30.33,30.19,9,2,0,0.16
2013-1-16,36.6,34.6,32.8,34.0,33.0,31.0,95,93,86,30.19,29.78,6,2,0,0.80
2013-1-17,44.7,39.9,36.8,35.0,30.3,26.0,90,70,57,30.07,29.90,9,2,0,0.00
2013-1-18,36.7,30.1,26.8,26.0,13.5,6.0,67,51,34,30.47,29.99,11,3,0,0.00
2013-1-19,52.5,39.4,26.7,30.0,24.7,13.0,75,57,39,30.39,29.92,17,4,0,0.00
2013-1-20,55.0,43.2,30.5,32.0,24.2,13.0,75,50,25,30.04,29.69,19,6,0,0.00
2013-1-21,31.9,28.9,22.7,18.0,13.2,9.0,65,52,43,30.09,29.83,10,2,0,0.00
2013-1-22,26.9,20.0,13.9,13.0,1.1,-5.0,55,44,32,30.21,29.83,14,7,0,0.00
2013-1-23,20.6,15.4,11.0,4.0,-1.0,-6.0,65,49,38,30.25,30.16,10,4,0,0.00
2013-1-24,25.1,18.0,10.9,6.0,2.1,-3.0,76,52,31,30.42,30.12,13,4,0,0.00
2013-1-25,23.9,17.7,12.6,18.0,5.9,-2.0,94,62,44,30.43,30.06,8,2,0,0.00
2013-1-26,29.4,20.8,13.9,13.0,10.1,7.0,90,65,43,30.38,30.04,10,4,0,0.03
2013-1-27,36.6,26.0,15.5,15.0,12.0,9.0,75,57,38,30.52,30.38,10,2,0,0.00
2013-1-28,34.9,30.8,23.1,33.0,25.7,14.0,94,82,62,30.48,30.00,11,1,0,0.13
2013-1-29,55.4,42.2,34.7,44.0,38.9,33.0,94,88,64,30.12,29.99,7,2,0,0.00
2013-1-30,68.0,54.0,42.0,60.0,50.7,41.0,98,89,75,30.05,29.34,14,3,0,0.01
2013-1-31,62.7,45.4,29.2,60.0,32.1,11.0,93,62,39,29.79,29.03,21,9,0,0.92
2013-2-1,31.9,28.1,23.4,20.0,12.5,4.0,80,53,31,30.23,29.79,14,6,0,0.00
2013-2-2,30.6,24.4,18.1,21.0,10.2,6.0,88,56,38,30.30,30.05,8,3,0,0.00
2013-2-3,32.6,26.9,24.0,23.0,20.9,18.0,90,78,61,30.04,29.78,5,1,0,0.03
2013-2-4,30.5,26.7,22.4,21.0,13.0,10.0,78,57,42,29.98,29.80,14,4,0,0.00
2013-2-5,32.5,30.1,26.5,29.0,26.4,20.0,90,86,76,29.96,29.88,3,0,0,0.01
2013-2-6,40.4,33.5,28.7,29.0,23.0,10.0,93,68,45,30.34,29.90,11,3,0,0.01
2013-2-7,32.8,29.5,23.6,24.0,14.5,8.0,71,54,46,30.49,30.30,7,2,0,0.00
2013-2-8,36.1,33.4,28.5,33.0,30.1,25.0,94,88,72,30.29,29.63,15,4,0,0.45
2013-2-9,33.7,28.2,20.8,29.0,18.7,9.0,96,70,43,30.34,29.75,17,6,0,0.14
2013-2-10,37.8,26.2,13.5,23.0,14.7,9.0,83,63,36,30.48,30.31,9,1,0,0.29
2013-2-11,43.2,36.9,29.9,43.0,34.8,22.0,98,92,72,30.32,29.64,7,0,0,0.24
2013-2-12,45.5,40.5,32.9,39.0,27.9,24.0,96,62,49,29.96,29.72,15,5,0,0.00
2013-2-13,44.2,35.9,27.5,33.0,27.1,23.0,93,71,51,29.95,29.67,7,1,0,0.04
2013-2-14,47.4,38.8,31.4,34.0,30.1,25.0,94,74,44,29.99,29.70,7,2,0,0.02
2013-2-15,56.6,43.7,31.2,36.0,32.4,29.0,92,67,43,30.01,29.89,11,2,0,0.00
2013-2-16,42.0,36.6,31.1,35.0,27.6,16.0,92,71,53,29.96,29.73,10,3,0,0.04
2013-2-17,33.2,27.4,18.8,15.0,7.1,1.0,54,43,31,30.02,29.67,25,9,0,0.00
2013-2-18,36.0,26.7,17.1,15.0,7.7,2.0,55,45,32,30.25,30.02,12,5,0,0.00
2013-2-19,49.5,37.8,25.5,44.0,29.6,14.0,93,73,50,30.19,29.66,13,3,0,0.23
2013-2-20,37.6,30.7,25.5,26.0,15.3,10.0,66,53,42,29.98,29.72,19,7,0,0.00
2013-2-21,36.2,28.9,23.8,17.0,13.9,11.0,65,54,43,30.27,29.98,18,6,0,0.00
2013-2-22,37.8,31.7,24.0,33.0,23.4,15.0,84,72,58,30.39,30.24,8,2,0,0.00
2013-2-23,44.9,40.0,37.1,44.0,38.6,34.0,96,94,84,30.25,29.78,8,2,0,0.40
2013-2-24,48.7,39.5,33.3,40.0,32.1,22.0,96,76,54,29.96,29.74,16,4,0,0.02
2013-2-25,45.1,38.2,30.3,30.0,26.9,22.0,79,65,51,30.21,29.97,8,2,0,0.00
2013-2-26,43.8,37.5,29.3,36.0,31.6,26.0,93,79,68,30.27,29.84,17,4,0,0.20
2013-2-27,48.6,43.0,37.8,46.0,40.0,36.0,97,89,74,29.85,29.48,10,3,0,1.22
2013-2-28,50.1,43.3,37.2,39.0,34.3,29.0,94,72,52,29.61,29.53,10,2,0,0.00
2013-3-1,46.4,39.4,32.8,31.0,29.3,26.0,86,68,50,29.78,29.59,13,3,0,0.00
2013-3-2,40.6,35.7,30.6,27.0,24.9,23.0,82,65,54,29.79,29.70,11,4,0,0.00
2013-3-3,39.7,33.1,29.2,24.0,20.1,18.0,75,60,47,29.77,29.66,12,6,0,0.00
2013-3-4,42.8,34.6,27.4,23.0,19.9,16.0,69,56,43,29.91,29.76,16,7,0,0.00
2013-3-5,50.7,39.1,30.9,31.0,25.6,21.0,77,60,42,30.01,29.91,13,2,0,0.00
2013-3-6,41.5,39.9,37.6,37.0,32.7,29.0,86,75,65,29.95,29.81,23,6,0,0.02
2013-3-7,40.5,37.2,33.1,35.0,31.1,28.0,94,79,67,30.07,29.89,21,4,0,0.15
2013-3-8,40.6,34.6,31.1,35.0,31.8,30.0,100,89,73,30.18,30.00,7,2,0,0.51
2013-3-9,59.0,43.8,32.4,33.0,25.2,19.0,82,52,23,30.30,30.16,9,2,0,0.04
2013-3-10,47.4,38.5,29.9,36.0,33.3,28.0,94,82,65,30.37,30.29,11,2,0,0.00
2013-3-11,54.9,45.5,35.3,47.0,41.6,33.0,93,87,69,30.31,30.07,10,2,0,0.00
2013-3-12,57.2,52.5,44.5,56.0,49.2,38.0,96,88,74,30.06,29.64,12,4,0,0.66
2013-3-13,51.2,43.2,36.7,38.0,31.2,24.0,89,65,36,29.88,29.78,12,4,0,0.00
2013-3-14,42.8,36.0,30.6,25.0,14.0,7.0,60,42,28,29.96,29.84,16,8,0,0.00
2013-3-15,47.4,38.6,28.6,32.0,20.9,11.0,59,50,39,29.98,29.70,14,5,0,0.00
2013-3-16,44.5,36.5,33.6,32.0,27.9,21.0,91,73,50,29.90,29.76,6,1,0,0.04
2013-3-17,38.8,34.1,29.2,30.0,20.8,16.0,90,60,43,30.29,29.90,12,3,0,0.00
2013-3-18,35.7,32.1,27.4,33.0,21.9,11.0,94,68,49,30.39,29.98,12,4,0,0.28
2013-3-19,48.6,39.3,34.4,38.0,33.1,18.0,95,81,40,29.98,29.68,9,3,0,0.75
2013-3-20,46.5,39.1,31.6,23.0,19.6,18.0,63,47,32,29.88,29.77,14,4,0,0.00
2013-3-21,40.6,35.0,30.8,28.0,19.5,12.0,84,55,36,29.82,29.62,10,4,0,0.00
2013-3-22,42.1,34.5,26.9,23.0,18.7,14.0,70,54,39,29.88,29.73,13,4,0,0.00
2013-3-23,46.7,38.9,30.8,23.0,20.9,18.0,68,50,35,29.92,29.82,13,6,0,0.00
2013-3-24,48.4,39.8,31.5,28.0,22.5,19.0,65,51,38,29.94,29.68,9,2,0,0.00
2013-3-25,39.3,37.4,34.1,35.0,31.8,27.0,93,81,62,29.69,29.46,8,2,0,0.21
2013-3-26,52.2,42.9,33.9,34.0,30.6,26.0,90,65,40,29.86,29.58,11,3,0,0.01
2013-3-27,53.4,43.8,34.9,32.0,28.2,23.0,71,56,32,29.97,29.85,11,5,0,0.00
2013-3-28,50.6,43.7,34.9,34.0,30.4,29.0,79,61,46,30.10,29.96,10,3,0,0.00
2013-3-29,55.4,45.6,34.0,32.0,29.3,27.0,80,55,34,30.14,30.04,14,3,0,0.00
2013-3-30,60.2,47.8,38.5,33.0,27.6,21.0,71,49,24,30.16,30.04,9,2,0,0.00
2013-3-31,56.3,46.2,34.4,44.0,35.6,25.0,96,69,43,30.11,29.67,18,3,0,0.09
2013-4-1,63.2,49.1,38.1,46.0,37.8,13.0,96,69,34,29.90,29.61,24,5,0,0.01
2013-4-2,44.2,38.1,30.5,19.0,14.4,12.0,55,39,27,30.07,29.91,14,5,0,0.00
2013-4-3,47.5,38.6,31.3,17.0,14.1,10.0,49,37,27,30.29,30.08,12,5,0,0.00
2013-4-4,52.5,41.2,30.1,30.0,21.2,14.0,59,46,33,30.38,30.08,9,2,0,0.00
2013-4-5,64.8,49.6,40.3,33.0,26.8,20.0,74,46,20,30.07,29.68,14,3,0,0.00
2013-4-6,54.4,44.0,34.9,29.0,18.8,10.0,66,39,18,30.30,29.99,11,4,0,0.00
2013-4-7,64.3,50.8,37.2,45.0,35.4,27.0,78,58,32,30.29,29.96,10,3,0,0.00
2013-4-8,73.6,59.2,46.1,48.0,45.2,42.0,86,63,35,30.05,29.95,10,2,0,0.00
2013-4-9,84.0,66.9,50.6,55.0,46.0,37.0,88,54,20,29.96,29.87,15,3,0,0.00
2013-4-10,75.9,64.5,55.2,55.0,51.4,46.0,95,64,45,29.93,29.77,8,2,0,0.47
2013-4-11,60.3,54.8,46.8,59.0,51.0,42.0,98,87,71,30.01,29.74,13,3,0,0.01
2013-4-12,48.7,43.9,42.0,43.0,41.4,40.0,95,91,74,29.99,29.69,12,4,0,0.80
2013-4-13,58.3,48.7,39.0,43.0,39.6,36.0,96,74,44,29.96,29.73,11,1,0,0.02
2013-4-14,60.5,52.0,43.6,44.0,35.8,29.0,87,58,32,30.19,29.95,15,2,0,0.00
2013-4-15,54.8,49.1,44.0,43.0,34.8,28.0,86,59,46,30.36,30.19,13,3,0,0.00
2013-4-16,70.8,58.1,46.2,56.0,50.1,43.0,89,76,60,30.35,30.09,9,2,0,0.00
2013-4-17,74.5,62.7,52.6,57.0,44.9,31.0,90,57,22,30.27,30.07,10,2,0,0.01
2013-4-18,56.1,52.2,48.5,55.0,46.4,41.0,96,81,69,30.32,30.07,9,2,0,0.01
2013-4-19,79.5,67.1,54.5,65.0,60.9,53.0,98,82,60,30.07,29.61,17,4,0,0.06
2013-4-20,61.8,53.0,47.6,58.0,36.2,26.0,92,56,34,30.28,29.67,13,5,0,0.11
2013-4-21,55.7,45.7,36.4,31.0,25.6,20.0,64,46,31,30.60,30.29,9,2,0,0.00
2013-4-22,51.5,45.5,37.1,39.0,34.0,30.0,82,65,47,30.63,30.46,16,4,0,0.00
2013-4-23,52.4,45.7,41.2,43.0,38.2,33.0,90,75,65,30.46,30.10,9,2,0,0.01
2013-4-24,74.7,56.6,38.7,55.0,46.5,36.0,91,71,47,30.10,29.79,10,2,0,0.00
2013-4-25,66.6,56.6,46.5,54.0,33.9,25.0,82,46,21,30.25,29.83,13,4,0,0.00
2013-4-26,68.3,55.8,43.2,38.0,32.8,24.0,77,45,19,30.38,30.24,9,2,0,0.00
2013-4-27,70.3,58.1,44.7,36.0,32.3,29.0,60,39,23,30.41,30.26,9,1,0,0.00
2013-4-28,70.2,57.7,42.6,45.0,37.5,31.0,78,49,29,30.30,30.17,12,2,0,0.00
2013-4-29,56.3,53.4,51.7,51.0,48.6,43.0,92,84,62,30.22,30.16,8,1,0,0.18
2013-4-30,63.4,55.2,46.8,50.0,43.3,30.0,92,67,30,30.32,30.18,11,2,0,0.00
2013-5-1,65.5,53.7,41.8,47.0,40.5,32.0,88,64,31,30.46,30.31,9,2,0,0.00
2013-5-2,69.9,56.9,41.9,47.0,43.7,40.0,95,65,39,30.45,30.30,7,1,0,0.00
2013-5-3,63.0,54.9,47.8,47.0,42.9,37.0,85,65,48,30.43,30.34,10,2,0,0.00
2013-5-4,64.9,53.4,44.5,48.0,43.6,41.0,92,72,45,30.36,30.23,11,2,0,0.00
2013-5-5,57.9,51.0,43.8,45.0,42.0,38.0,88,72,58,30.27,30.21,8,2,0,0.00
2013-5-6,63.9,54.7,46.9,52.0,47.6,44.0,90,78,64,30.25,30.14,6,1,0,0.00
2013-5-7,69.0,57.3,46.2,60.0,52.9,45.0,96,86,71,30.15,30.06,7,1,0,0.01
2013-5-8,66.5,59.6,53.7,61.0,57.4,52.0,98,92,82,30.07,29.94,8,1,0,1.33
2013-5-9,71.5,59.9,53.0,60.0,55.6,51.0,98,87,60,29.97,29.87,5,1,0,0.94
2013-5-10,81.6,67.8,53.7,61.0,57.4,52.0,97,72,42,29.98,29.86,6,1,0,0.00
2013-5-11,74.6,65.2,62.2,65.0,62.4,58.0,96,91,69,29.88,29.67,9,1,0,0.62
2013-5-12,67.6,61.1,51.3,63.0,43.5,28.0,96,57,25,29.93,29.64,14,4,0,0.01
2013-5-13,57.5,50.6,43.6,34.0,30.4,25.0,66,47,32,30.09,29.93,12,4,0,0.00
2013-5-14,62.8,51.4,37.9,34.0,30.0,23.0,80,48,22,30.12,30.00,11,2,0,0.00
2013-5-15,75.8,59.6,46.0,59.0,47.3,32.0,75,64,48,30.05,29.66,8,1,0,0.00
2013-5-16,82.1,70.3,58.4,62.0,57.3,50.0,90,66,39,29.80,29.69,7,1,0,0.00
2013-5-17,75.1,66.2,59.0,49.0,42.8,39.0,63,44,29,30.18,29.81,8,2,0,0.00
2013-5-18,64.1,59.0,55.0,56.0,51.3,46.0,87,76,63,30.29,30.18,4,0,0,0.00
2013-5-19,58.0,56.6,55.1,57.0,55.5,53.0,98,96,83,30.28,30.15,6,1,0,0.14
2013-5-20,80.7,68.2,57.2,68.0,63.0,57.0,99,85,63,30.16,29.93,5,1,0,0.00
2013-5-21,87.9,75.7,63.5,72.0,67.7,62.0,97,78,57,29.95,29.81,12,1,0,0.00
2013-5-22,81.2,71.3,60.7,71.0,66.0,58.0,94,83,70,29.91,29.80,6,1,0,0.00
2013-5-23,82.3,73.3,68.4,70.0,68.2,66.0,94,84,61,29.86,29.73,10,2,0,0.35
2013-5-24,68.3,55.9,46.2,66.0,53.0,42.0,97,90,77,29.95,29.66,13,3,0,0.15
2013-5-25,58.0,50.5,44.9,45.0,41.8,37.0,92,73,53,30.01,29.91,18,6,0,0.02
2013-5-26,69.3,58.2,47.9,41.0,37.5,34.0,72,49,29,30.19,29.97,16,5,0,0.00
2013-5-27,75.3,62.0,45.1,44.0,40.0,36.0,74,47,28,30.24,30.11,7,2,0,0.00
2013-5-28,67.4,58.9,51.3,58.0,52.4,45.0,97,81,53,30.21,30.11,3,0,0,0.40
2013-5-29,89.4,72.1,58.5,72.0,63.8,58.0,99,78,46,30.11,29.97,6,1,0,0.00
2013-5-30,94.3,82.6,70.0,70.0,66.4,64.0,89,60,37,30.10,30.02,6,1,0,0.00
2013-5-31,94.5,83.3,70.9,72.0,65.8,58.0,83,58,33,30.10,29.95,7,1,0,0.00
2013-6-1,92.2,81.8,70.8,71.0,68.1,65.0,86,65,43,30.00,29.86,7,2,0,0.00
2013-6-2,89.0,80.6,71.4,71.0,68.7,66.0,91,68,48,29.88,29.75,10,2,0,0.19
2013-6-3,80.2,71.9,68.0,70.0,67.5,56.0,97,86,63,29.85,29.76,5,0,0,0.67
2013-6-4,77.0,67.4,57.3,53.0,46.1,44.0,65,48,32,30.09,29.86,12,3,0,0.00
2013-6-5,73.8,65.2,53.9,56.0,47.9,40.0,90,55,40,30.19,30.09,6,1,0,0.00
2013-6-6,71.1,63.6,58.0,61.0,58.7,56.0,96,84,63,30.13,29.98,7,1,0,0.18
2013-6-7,63.3,61.2,59.9,63.0,60.6,59.0,98,97,95,29.99,29.58,11,2,0,3.66
2013-6-8,78.2,68.2,57.6,66.0,61.7,56.0,98,81,61,30.03,29.55,7,2,0,0.03
2013-6-9,83.8,72.7,59.9,64.0,60.2,57.0,94,68,43,30.15,30.03,5,1,0,0.00
2013-6-10,69.7,66.3,63.5,66.0,63.9,63.0,98,92,82,30.12,29.79,5,0,0,1.42
2013-6-11,81.4,74.1,66.2,69.0,66.4,61.0,99,78,59,29.78,29.60,15,2,0,0.07
2013-6-12,81.6,72.3,65.3,62.0,57.3,54.0,78,61,42,29.82,29.70,10,3,0,0.00
2013-6-13,66.5,63.5,57.8,63.0,59.5,55.0,95,86,73,29.82,29.42,8,1,0,0.93
2013-6-14,73.1,61.5,54.2,61.0,55.0,52.0,95,80,55,29.88,29.50,11,2,0,0.34
2013-6-15,81.9,69.9,54.4,60.0,56.0,53.0,97,65,39,30.00,29.87,5,1,0,0.00
2013-6-16,83.6,72.2,59.7,66.0,60.2,55.0,88,68,41,29.97,29.75,9,1,0,0.00
2013-6-17,87.6,76.1,65.6,69.0,65.5,61.0,94,72,46,29.89,29.80,8,1,0,0.00
2013-6-18,83.0,71.1,64.3,70.0,65.6,62.0,94,83,64,29.87,29.78,6,1,0,0.13
2013-6-19,80.1,69.6,59.0,63.0,54.4,48.0,94,63,33,30.14,29.85,6,2,0,0.01
2013-6-20,81.4,69.9,55.7,59.0,55.7,51.0,90,63,43,30.25,30.15,7,1,0,0.00
2013-6-21,84.6,72.5,59.7,61.0,54.6,49.0,75,55,40,30.29,30.20,7,1,0,0.00
2013-6-22,86.1,73.6,58.9,66.0,59.3,51.0,87,62,47,30.25,30.09,6,1,0,0.00
2013-6-23,89.2,76.9,65.9,72.0,67.1,60.0,91,73,55,30.18,30.03,10,1,0,0.01
2013-6-24,94.5,80.5,72.3,75.0,69.3,60.0,94,71,42,30.05,29.94,4,1,0,0.00
2013-6-25,93.5,80.0,68.6,76.0,69.1,65.0,95,71,46,29.98,29.79,7,1,0,0.37
2013-6-26,89.4,79.6,73.0,73.0,68.6,65.0,95,71,50,29.83,29.75,6,1,0,0.40
2013-6-27,88.8,78.6,71.8,75.0,72.3,71.0,97,82,58,29.80,29.54,8,1,0,0.41
2013-6-28,88.2,77.9,72.3,72.0,70.1,67.0,93,78,54,29.55,29.45,7,1,0,0.01
2013-6-29,87.1,77.3,68.1,73.0,68.3,65.0,95,76,48,29.67,29.47,6,1,0,0.00
2013-6-30,86.0,76.7,71.0,76.0,72.4,69.0,96,87,71,29.88,29.67,9,1,0,0.06
2013-7-1,77.4,74.9,72.3,75.0,72.6,71.0,97,92,87,30.02,29.87,7,1,0,1.11
2013-7-2,85.3,77.4,73.4,76.0,72.9,71.0,94,86,70,30.16,30.02,6,1,0,0.03
2013-7-3,86.8,78.4,71.4,76.0,73.2,69.0,95,84,66,30.23,30.14,9,1,0,0.13
2013-7-4,90.0,82.0,75.0,76.0,74.0,72.0,96,78,58,30.23,30.13,8,1,0,0.01
2013-7-5,92.6,83.6,74.1,76.0,73.3,71.0,93,73,53,30.20,30.07,8,1,0,0.00
2013-7-6,94.6,84.8,75.9,76.0,73.6,72.0,89,70,50,30.12,30.00,7,1,0,0.00
2013-7-7,94.5,85.7,77.3,77.0,73.3,69.0,84,67,52,30.04,29.90,9,1,0,0.00
2013-7-8,90.1,79.9,71.2,73.0,69.2,65.0,88,71,51,30.03,29.94,11,1,0,0.00
2013-7-9,90.6,80.5,71.2,73.0,70.0,67.0,89,71,50,30.05,29.96,9,1,0,0.01
2013-7-10,88.7,80.3,72.8,77.0,73.0,71.0,94,80,59,30.00,29.78,9,1,0,0.12
2013-7-11,88.0,80.6,77.4,74.0,70.5,65.0,85,72,55,29.90,29.78,6,1,0,0.00
2013-7-12,78.9,74.0,69.1,70.0,66.4,63.0,96,77,64,30.06,29.90,10,2,0,0.52
2013-7-13,80.3,73.9,69.2,76.0,72.4,68.0,98,95,83,30.26,30.06,3,0,0,0.50
2013-7-14,92.6,82.3,73.6,76.0,73.9,72.0,98,78,54,30.32,30.21,5,0,0,0.00
2013-7-15,97.1,85.7,74.9,76.0,73.2,71.0,87,68,48,30.23,30.10,7,1,0,0.00
2013-7-16,96.2,86.9,76.5,73.0,69.6,67.0,79,58,39,30.18,30.09,9,2,0,0.00
2013-7-17,98.7,87.4,76.5,73.0,71.5,70.0,82,61,42,30.16,30.03,6,1,0,0.00
2013-7-18,99.6,89.3,79.0,78.0,73.6,70.0,78,61,40,30.05,29.93,7,1,0,0.00
2013-7-19,97.7,89.4,80.9,81.0,77.4,75.0,85,69,49,29.95,29.77,8,1,0,0.00
2013-7-20,93.7,83.9,73.7,77.0,73.5,70.0,97,72,54,29.81,29.71,8,1,0,1.16
2013-7-21,87.1,79.3,72.4,75.0,69.6,63.0,97,74,46,29.93,29.81,7,1,0,0.00
2013-7-22,88.9,78.5,74.0,76.0,73.8,71.0,97,86,64,29.93,29.77,7,0,0,0.23
2013-7-23,88.8,79.4,71.8,75.0,72.9,70.0,97,82,61,29.76,29.54,5,1,0,0.34
2013-7-24,82.2,76.9,68.3,71.0,65.6,56.0,86,69,53,29.90,29.60,10,2,0,0.00
2013-7-25,68.4,66.7,64.7,60.0,55.8,51.0,77,68,61,30.02,29.91,10,2,0,0.00
2013-7-26,84.1,73.6,66.5,66.0,61.3,59.0,84,67,47,30.02,29.97,9,1,0,0.00
2013-7-27,85.6,74.4,64.4,68.0,65.1,63.0,96,74,50,30.03,29.92,8,1,0,0.00
2013-7-28,82.3,72.7,67.5,72.0,68.5,65.0,97,87,67,29.96,29.88,6,0,0,0.57
2013-7-29,85.4,74.7,66.6,69.0,64.2,56.0,98,73,38,30.09,29.93,9,1,0,0.04
2013-7-30,82.7,73.0,60.4,60.0,58.3,56.0,86,61,44,30.15,30.07,8,1,0,0.00
2013-7-31,84.0,74.0,62.0,65.0,60.4,57.0,85,64,42,30.14,30.01,5,0,0,0.00
2013-8-1,72.9,69.8,67.0,69.0,66.1,64.0,97,88,76,30.01,29.81,4,0,0,0.84
2013-8-2,86.0,75.5,65.6,69.0,65.2,61.0,98,73,43,29.89,29.77,8,1,0,0.00
2013-8-3,79.3,71.9,68.4,68.0,64.5,61.0,87,78,67,29.90,29.83,9,0,0,0.02
2013-8-4,80.7,72.3,64.7,65.0,58.5,52.0,95,64,43,29.95,29.84,16,2,0,0.00
2013-8-5,80.2,69.9,60.7,57.0,51.7,47.0,74,55,34,30.05,29.95,8,2,0,0.00
2013-8-6,82.9,72.1,60.0,64.0,58.2,56.0,88,64,43,30.10,30.01,7,1,0,0.00
2013-8-7,80.3,73.0,68.1,68.0,65.9,63.0,86,78,64,30.12,30.03,6,1,0,0.00
2013-8-8,83.8,74.5,69.4,75.0,71.0,67.0,96,89,71,30.04,29.97,7,0,0,0.73
2013-8-9,86.8,78.6,72.9,76.0,73.7,71.0,95,86,69,29.99,29.78,12,1,0,0.07
2013-8-10,85.6,76.8,67.9,73.0,66.3,60.0,96,72,52,30.02,29.84,9,1,0,0.01
2013-8-11,84.7,74.3,64.7,66.0,59.3,55.0,84,61,41,30.11,29.99,8,1,0,0.00
2013-8-12,81.0,74.1,68.5,70.0,68.2,66.0,95,82,65,30.01,29.90,2,0,0,0.75
2013-8-13,80.5,72.6,68.9,71.0,68.8,64.0,97,88,68,29.91,29.68,5,0,0,0.74
2013-8-14,75.0,68.0,59.3,65.0,54.0,50.0,82,62,47,30.03,29.74,14,4,0,0.00
2013-8-15,79.3,67.0,53.4,57.0,52.2,48.0,90,62,36,30.13,30.04,6,1,0,0.00
2013-8-16,82.5,69.5,55.7,58.0,55.4,51.0,95,64,37,30.19,30.11,6,0,0,0.00
2013-8-17,82.8,70.9,57.1,61.0,57.1,54.0,92,64,38,30.25,30.19,7,1,0,0.00
2013-8-18,79.6,70.0,64.3,64.0,60.2,57.0,86,72,48,30.23,30.11,2,0,0,0.00
2013-8-19,78.6,70.1,62.0,66.0,62.5,58.0,93,77,56,30.12,30.02,5,0,0,0.01
2013-8-20,89.8,76.7,63.2,70.0,65.3,62.0,97,71,43,30.11,30.03,5,0,0,0.00
2013-8-21,90.4,78.9,65.4,70.0,64.4,60.0,94,65,37,30.16,30.04,5,0,0,0.00
2013-8-22,78.9,73.9,70.5,72.0,70.4,68.0,95,89,80,30.04,29.86,5,0,0,0.51
2013-8-23,82.1,75.1,68.6,71.0,62.0,52.0,95,66,36,30.07,29.86,8,1,0,0.00
2013-8-24,82.6,71.6,63.2,60.0,55.1,52.0,83,57,38,30.32,30.08,7,1,0,0.00
2013-8-25,83.3,70.4,56.8,60.0,56.7,54.0,96,66,39,30.38,30.22,4,1,0,0.00
2013-8-26,83.7,74.2,65.1,69.0,63.0,56.0,85,69,54,30.22,29.90,7,1,0,0.01
2013-8-27,89.8,78.3,70.4,70.0,68.6,68.0,93,74,51,29.89,29.81,10,2,0,0.08
2013-8-28,84.8,75.3,69.7,73.0,70.5,67.0,94,86,64,29.87,29.82,5,0,0,0.09
2013-8-29,80.8,73.5,69.7,70.0,68.1,65.0,98,84,64,30.01,29.86,6,1,0,0.00
2013-8-30,86.4,75.8,69.0,72.0,68.3,65.0,89,78,57,30.01,29.84,5,1,0,0.00
2013-8-31,87.6,78.5,70.7,75.0,71.5,68.0,92,80,63,29.85,29.76,8,1,0,0.00
2013-9-1,87.0,77.6,71.8,75.0,72.2,70.0,97,84,68,29.84,29.76,4,0,0,0.45
2013-9-2,83.6,76.4,72.6,75.0,72.4,71.0,95,88,65,29.78,29.69,4,0,0,0.17
2013-9-3,82.8,75.1,68.5,72.0,65.9,58.0,98,76,47,29.87,29.70,9,1,0,0.02
2013-9-4,82.2,71.5,61.6,61.0,58.6,55.0,87,66,47,29.99,29.87,7,2,0,0.00
2013-9-5,79.9,69.7,61.0,62.0,54.4,44.0,85,61,33,30.13,29.92,8,2,0,0.00
2013-9-6,73.6,63.1,52.9,49.0,45.5,42.0,74,55,35,30.25,30.12,6,1,0,0.00
2013-9-7,79.9,66.3,50.2,55.0,50.3,47.0,92,60,33,30.12,29.89,7,1,0,0.00
2013-9-8,82.5,71.8,63.2,67.0,57.5,47.0,81,62,40,30.06,29.80,8,2,0,0.00
2013-9-9,73.6,65.0,54.1,60.0,52.1,45.0,78,64,51,30.23,30.06,6,1,0,0.00
2013-9-10,87.1,76.3,66.5,74.0,68.8,60.0,88,78,64,30.15,30.02,7,1,0,0.00
2013-9-11,94.4,83.5,73.9,78.0,74.2,72.0,93,75,56,30.10,29.94,9,1,0,0.00
2013-9-12,86.3,77.2,68.8,75.0,71.3,67.0,96,82,68,29.97,29.65,8,1,0,0.77
2013-9-13,77.4,68.4,59.3,68.0,60.6,50.0,97,77,54,29.84,29.63,11,2,0,0.11
2013-9-14,66.6,58.5,50.0,50.0,47.8,46.0,88,69,53,30.12,29.85,10,3,0,0.00
2013-9-15,73.3,59.9,46.1,54.0,47.8,43.0,92,67,40,30.22,30.07,7,1,0,0.00
2013-9-16,73.9,63.3,56.8,58.0,54.6,50.0,92,75,49,30.22,30.02,7,1,0,0.04
2013-9-17,67.2,56.4,47.9,51.0,41.1,37.0,79,58,36,30.43,30.22,13,2,0,0.00
2013-9-18,72.4,57.7,42.6,54.0,46.3,41.0,94,69,38,30.34,30.18,8,1,0,0.00
2013-9-19,77.9,62.5,48.5,57.0,51.3,47.0,93,70,39,30.19,30.05,4,0,0,0.00
2013-9-20,80.2,65.4,52.5,62.0,56.9,51.0,96,76,50,30.07,29.97,8,1,0,0.00
2013-9-21,80.5,67.1,53.9,67.0,60.6,52.0,96,81,46,30.00,29.65,7,1,0,0.28
2013-9-22,69.7,63.5,54.9,66.0,52.7,42.0,96,70,45,29.91,29.64,10,3,0,0.52
2013-9-23,66.6,56.9,49.1,46.0,43.2,41.0,77,61,46,30.04,29.91,12,2,0,0.00
2013-9-24,74.3,58.7,44.6,49.0,44.9,41.0,86,63,39,30.05,29.87,9,1,0,0.00
2013-9-25,74.4,61.1,48.9,51.0,47.4,44.0,84,63,39,29.95,29.86,4,1,0,0.00
2013-9-26,70.3,60.5,52.1,60.0,55.0,50.0,92,82,66,30.08,29.92,7,1,0,0.00
2013-9-27,70.2,61.5,53.2,57.0,53.3,50.0,92,75,55,30.25,30.08,5,0,0,0.00
2013-9-28,74.4,63.0,54.8,56.0,53.3,52.0,89,72,47,30.31,30.22,8,1,0,0.00
2013-9-29,71.7,60.7,51.5,59.0,54.0,49.0,94,79,59,30.22,30.07,6,0,0,0.00
2013-9-30,76.1,61.5,51.0,57.0,53.1,49.0,95,76,45,30.07,29.96,4,0,0,0.00
2013-10-1,82.2,66.7,52.6,61.0,56.0,50.0,93,71,45,30.00,29.88,7,0,0,0.00
2013-10-2,84.1,70.7,56.2,64.0,59.6,54.0,92,70,48,29.99,29.89,8,1,0,0.00
2013-10-3,80.0,69.6,58.0,61.0,57.9,54.0,92,69,42,30.11,29.99,3,0,0,0.00
2013-10-4,87.4,72.9,60.1,67.0,62.8,56.0,91,72,50,30.05,29.94,4,0,0,0.00
2013-10-5,79.0,70.0,64.9,66.0,64.4,63.0,92,83,65,30.08,29.98,6,0,0,0.00
2013-10-6,69.0,67.0,65.2,68.0,65.4,63.0,97,95,91,30.08,30.00,3,0,0,0.00
2013-10-7,79.4,66.7,57.2,72.0,64.3,53.0,98,92,73,30.00,29.74,10,2,0,0.44
2013-10-8,69.5,59.0,50.0,52.0,46.9,44.0,91,66,43,30.30,29.98,7,1,0,0.00
2013-10-9,62.7,57.8,52.3,51.0,47.2,41.0,73,68,63,30.38,30.27,12,2,0,0.00
2013-10-10,62.8,58.4,52.8,56.0,52.3,48.0,88,80,74,30.25,30.04,8,2,0,0.04
2013-10-11,67.3,63.3,57.9,60.0,57.8,55.0,91,82,69,30.06,29.98,0,0,0,0.06
2013-10-12,72.9,65.0,59.5,58.0,51.1,41.0,77,61,50,30.25,30.04,0,0,0,0.00
2013-10-13,66.6,60.4,54.9,56.0,52.3,49.0,82,75,62,30.36,30.25,0,0,0,0.00
2013-10-14,67.5,56.7,47.7,52.0,49.3,46.0,93,78,54,30.35,30.23,0,0,0,0.00
2013-10-15,71.1,57.8,48.2,56.0,49.9,45.0,96,78,41,30.25,30.10,0,0,0,0.00
2013-10-16,68.9,60.4,54.3,60.0,55.9,51.0,94,85,71,30.10,29.91,0,0,0,0.00
2013-10-17,73.2,65.3,60.5,63.0,61.1,59.0,94,86,67,29.90,29.67,0,0,0,0.01
2013-10-18,68.1,61.1,51.6,63.0,48.0,43.0,89,63,44,29.98,29.66,0,0,0,0.00
2013-10-19,64.1,54.4,43.5,55.0,46.5,40.0,92,76,53,29.98,29.74,4,0,0,0.02
2013-10-20,63.8,54.5,46.2,54.0,41.2,34.0,92,64,35,30.06,29.75,7,1,0,0.01
2013-10-21,68.0,54.1,41.3,46.0,40.5,37.0,87,63,36,30.15,29.98,3,0,0,0.00
2013-10-22,66.8,54.3,44.9,51.0,46.0,37.0,95,75,55,29.97,29.75,7,0,0,0.00
2013-10-23,56.4,48.5,42.4,41.0,37.7,36.0,79,67,49,29.81,29.60,5,1,0,0.00
2013-10-24,54.8,44.8,37.5,36.0,31.9,27.0,86,63,37,30.02,29.75,10,1,0,0.00
2013-10-25,54.5,44.6,36.2,35.0,31.3,28.0,79,61,38,30.23,30.02,9,1,0,0.00
2013-10-26,56.1,45.3,33.1,35.0,32.1,29.0,88,63,36,30.22,29.89,9,1,0,0.00
2013-10-27,58.9,50.0,40.7,36.0,33.5,32.0,71,54,39,30.12,29.85,10,1,0,0.00
2013-10-28,62.5,49.0,34.7,37.0,34.0,31.0,86,59,36,30.30,30.12,6,1,0,0.00
2013-10-29,58.7,48.9,42.2,39.0,35.4,32.0,76,61,42,30.41,30.30,4,0,0,0.00
2013-10-30,60.7,50.8,41.8,52.0,43.3,34.0,85,75,66,30.34,30.17,3,0,0,0.00
2013-10-31,68.3,60.9,50.9,61.0,56.4,49.0,94,85,73,30.19,29.80,5,0,0,0.04
2013-11-1,70.1,65.2,56.7,64.0,59.1,55.0,93,81,61,29.79,29.54,7,1,0,0.17
2013-11-2,68.4,58.1,51.0,55.0,48.2,40.0,96,72,47,29.77,29.61,5,0,0,0.00
2013-11-3,52.4,46.1,35.2,43.0,33.4,22.0,78,62,42,30.45,29.78,7,2,0,0.00
2013-11-4,48.3,39.0,31.9,27.0,21.2,17.0,65,50,31,30.65,30.45,7,1,0,0.00
2013-11-5,55.9,46.3,36.4,43.0,36.8,26.0,85,70,58,30.64,30.47,4,0,0,0.00
2013-11-6,63.1,52.2,38.7,53.0,45.4,37.0,96,79,57,30.48,30.06,2,0,0,0.00
2013-11-7,63.1,54.0,38.1,58.0,49.0,32.0,95,83,62,30.05,29.75,15,1,0,0.09
2013-11-8,49.4,43.0,37.1,36.0,29.8,25.0,81,61,42,30.23,29.94,10,2,0,0.00
2013-11-9,52.3,42.7,33.6,34.0,29.3,27.0,78,61,39,30.30,29.99,4,0,0,0.00
2013-11-10,60.1,48.5,38.6,40.0,33.8,27.0,83,59,38,30.05,29.81,11,3,0,0.00
2013-11-11,53.7,47.8,37.0,35.0,29.9,26.0,65,51,41,30.21,29.96,8,2,0,0.00
2013-11-12,50.7,38.3,29.2,37.0,25.2,17.0,87,60,48,30.30,29.93,15,3,0,0.02
2013-11-13,40.8,32.6,27.0,20.0,16.5,12.0,69,53,31,30.37,30.28,8,2,0,0.00
2013-11-14,53.3,41.2,28.1,22.0,19.4,16.0,72,45,24,30.27,30.16,7,2,0,0.00
2013-11-15,57.7,44.1,31.4,33.0,27.6,23.0,79,55,28,30.26,30.15,3,0,0,0.00
2013-11-16,60.6,49.8,42.3,47.0,41.5,30.0,95,74,57,30.32,30.22,3,0,0,0.04
2013-11-17,61.9,54.8,46.7,58.0,52.8,45.0,97,93,87,30.25,29.77,2,0,0,0.00
2013-11-18,65.5,60.2,51.2,63.0,42.0,27.0,96,55,31,29.78,29.59,10,3,0,0.14
2013-11-19,50.7,43.9,35.6,29.0,25.5,22.0,59,49,42,30.34,29.78,14,5,0,0.00
2013-11-20,46.8,37.1,31.9,22.0,18.1,10.0,65,49,23,30.60,30.35,6,1,0,0.00
2013-11-21,51.9,42.6,29.1,42.0,32.1,19.0,79,67,54,30.60,30.39,6,1,0,0.00
2013-11-22,58.1,52.1,48.3,50.0,47.2,42.0,94,83,75,30.38,29.90,3,1,0,0.07
2013-11-23,53.1,42.4,30.8,48.0,26.4,10.0,91,55,35,30.04,29.90,12,5,0,0.00
2013-11-24,30.1,25.8,22.6,11.0,4.4,2.0,47,40,31,30.40,30.02,20,7,0,0.00
2013-11-25,36.2,28.3,19.4,16.0,12.0,6.0,64,51,42,30.49,30.34,5,1,0,0.00
2013-11-26,52.1,36.9,32.0,51.0,27.7,17.0,97,71,50,30.34,29.73,6,0,0,0.67
2013-11-27,62.6,47.0,34.3,62.0,43.4,21.0,98,87,59,29.75,29.35,12,4,0,1.64
2013-11-28,36.8,31.9,27.5,23.0,15.4,11.0,71,51,36,30.47,29.77,13,4,0,0.00
2013-11-29,40.5,33.0,28.1,22.0,19.8,16.0,72,59,45,30.73,30.46,7,1,0,0.00
2013-11-30,37.9,32.2,23.8,31.0,21.7,13.0,76,66,51,30.75,30.36,4,1,0,0.00
2013-12-1,49.4,41.5,32.8,33.0,30.7,27.0,83,66,53,30.36,30.01,5,0,0,0.00
2013-12-2,52.6,42.3,37.7,37.0,32.6,29.0,91,69,49,30.00,29.87,5,0,0,0.00
2013-12-3,54.3,43.0,36.7,38.0,35.6,33.0,91,76,51,30.00,29.87,4,0,0,0.00
2013-12-4,49.5,43.6,35.4,46.0,39.2,32.0,91,84,70,30.12,30.00,2,0,0,0.00
2013-12-5,58.3,53.3,48.4,56.0,51.5,46.0,97,93,89,30.10,29.92,3,0,0,0.01
2013-12-6,62.0,48.5,38.4,61.0,46.8,37.0,98,93,87,30.15,29.85,8,1,0,0.83
2013-12-7,41.4,36.6,31.0,36.0,28.9,18.0,95,75,54,30.51,30.09,12,2,0,0.15
2013-12-8,32.9,29.9,27.0,30.0,21.5,16.0,94,72,58,30.58,30.36,4,0,0,0.00
2013-12-9,37.3,34.7,31.3,36.0,33.5,30.0,96,95,92,30.34,29.96,6,1,0,0.43
2013-12-10,34.2,31.9,27.2,32.0,28.9,18.0,96,89,68,30.13,29.86,7,2,0,0.11
2013-12-11,32.5,28.2,23.5,20.0,17.5,15.0,72,65,51,30.33,30.14,9,2,0,0.06
2013-12-12,28.5,24.5,20.5,17.0,10.3,6.0,71,55,41,30.36,30.17,7,2,0,0.00
2013-12-13,35.2,27.2,19.1,20.0,14.1,8.0,71,59,48,30.32,30.14,13,2,0,0.00
2013-12-14,30.9,26.7,21.3,30.0,22.1,19.0,95,83,65,30.47,29.75,7,2,0,0.00
2013-12-15,39.0,34.2,30.6,34.0,29.0,21.0,96,82,62,29.84,29.50,7,3,0,0.90
2013-12-16,32.2,26.9,18.9,23.0,13.9,9.0,77,59,44,30.23,29.83,10,3,0,0.01
2013-12-17,30.6,26.1,20.7,29.0,21.9,14.0,92,84,65,30.22,29.91,4,1,0,0.00
2013-12-18,37.7,28.7,21.5,25.0,21.1,18.0,87,74,55,30.17,29.92,8,2,0,0.15
2013-12-19,44.7,34.3,24.1,31.0,25.9,19.0,85,72,53,30.18,30.02,6,1,0,0.08
2013-12-20,52.6,42.4,32.1,43.0,33.8,29.0,91,73,51,30.09,29.96,4,0,0,0.00
2013-12-21,64.2,52.4,40.9,54.0,47.7,39.0,96,84,66,29.99,29.88,5,0,0,0.00
2013-12-22,70.2,65.6,58.2,64.0,59.6,54.0,89,81,72,29.94,29.79,10,2,0,0.02
2013-12-23,61.7,55.1,41.2,59.0,52.5,33.0,98,91,72,30.14,29.86,8,1,0,0.63
2013-12-24,41.9,35.5,26.6,33.0,23.1,11.0,84,61,46,30.34,30.09,13,3,0,0.00
2013-12-25,29.6,25.0,18.7,16.0,10.0,7.0,65,54,43,30.53,30.35,10,2,0,0.00
2013-12-26,36.1,30.4,25.2,28.0,22.7,16.0,80,73,64,30.42,30.16,9,1,0,0.00
2013-12-27,41.3,32.4,24.9,24.0,21.5,19.0,79,66,45,30.36,30.25,8,1,0,0.00
2013-12-28,56.8,42.0,27.6,31.0,27.2,22.0,79,58,36,30.28,30.07,10,2,0,0.00
2013-12-29,44.6,41.9,38.5,44.0,35.9,29.0,96,80,58,30.06,29.40,9,1,0,1.29
2013-12-30,45.9,35.8,23.0,38.0,27.8,11.0,93,74,55,30.18,29.69,8,2,0,0.00
2013-12-31,31.4,26.0,19.3,26.0,14.0,9.0,83,61,50,30.29,30.06,13,2,0,0.00
2014-1-1,33.5,28.5,21.5,24.0,16.9,10.0,77,62,55,30.41,30.23,4,1,0,0.00
2014-1-2,32.8,26.8,17.0,26.0,21.9,15.0,91,82,66,30.22,29.66,7,2,0,0.00